sensor_id;sensor_type;location;lat;lon;timestamp;P1;durP1;ratioP1;P2;durP2;ratioP2
55186;SDS011;55457;52.002;5.464;2023-06-22T00:01:47;4.93;;;2.72;;
55186;SDS011;55457;52.002;5.464;2023-06-22T00:04:13;4.07;;;2.20;;
55186;SDS011;55457;52.002;5.464;2023-06-22T00:06:38;2.97;;;1.92;;
55186;SDS011;55457;52.002;5.464;2023-06-22T00:09:03;5.13;;;2.50;;
55186;SDS011;55457;52.002;5.464;2023-06-22T00:11:29;6.53;;;2.47;;
55186;SDS011;55457;52.002;5.464;2023-06-22T00:13:56;4.15;;;2.00;;
55186;SDS011;55457;52.002;5.464;2023-06-22T00:16:21;9.02;;;2.72;;
55186;SDS011;55457;52.002;5.464;2023-06-22T00:18:47;3.88;;;2.00;;
55186;SDS011;55457;52.002;5.464;2023-06-22T00:21:13;4.13;;;2.58;;
55186;SDS011;55457;52.002;5.464;2023-06-22T00:23:39;4.82;;;2.45;;
55186;SDS011;55457;52.002;5.464;2023-06-22T00:26:04;5.00;;;2.55;;
55186;SDS011;55457;52.002;5.464;2023-06-22T00:28:29;5.80;;;2.53;;
55186;SDS011;55457;52.002;5.464;2023-06-22T00:30:55;5.00;;;2.42;;
55186;SDS011;55457;52.002;5.464;2023-06-22T00:33:20;7.20;;;2.38;;
55186;SDS011;55457;52.002;5.464;2023-06-22T00:35:46;3.88;;;2.40;;
55186;SDS011;55457;52.002;5.464;2023-06-22T00:38:11;4.40;;;2.55;;
55186;SDS011;55457;52.002;5.464;2023-06-22T00:40:37;5.82;;;2.80;;
55186;SDS011;55457;52.002;5.464;2023-06-22T00:43:02;8.32;;;2.47;;
55186;SDS011;55457;52.002;5.464;2023-06-22T00:45:29;4.03;;;2.25;;
55186;SDS011;55457;52.002;5.464;2023-06-22T00:47:56;2.83;;;2.20;;
55186;SDS011;55457;52.002;5.464;2023-06-22T00:50:23;3.70;;;2.08;;
55186;SDS011;55457;52.002;5.464;2023-06-22T00:52:51;4.70;;;2.28;;
55186;SDS011;55457;52.002;5.464;2023-06-22T00:55:21;3.85;;;2.50;;
55186;SDS011;55457;52.002;5.464;2023-06-22T00:57:47;8.90;;;2.83;;
55186;SDS011;55457;52.002;5.464;2023-06-22T01:00:13;3.67;;;2.30;;
55186;SDS011;55457;52.002;5.464;2023-06-22T01:02:41;6.20;;;2.38;;
55186;SDS011;55457;52.002;5.464;2023-06-22T01:05:10;5.68;;;2.40;;
55186;SDS011;55457;52.002;5.464;2023-06-22T01:07:39;7.90;;;2.17;;
55186;SDS011;55457;52.002;5.464;2023-06-22T01:10:29;6.60;;;2.55;;
55186;SDS011;55457;52.002;5.464;2023-06-22T01:13:54;5.97;;;2.70;;
55186;SDS011;55457;52.002;5.464;2023-06-22T01:16:02;4.65;;;2.40;;
55186;SDS011;55457;52.002;5.464;2023-06-22T01:18:32;3.60;;;2.30;;
55186;SDS011;55457;52.002;5.464;2023-06-22T01:21:02;4.10;;;2.63;;
55186;SDS011;55457;52.002;5.464;2023-06-22T01:23:36;4.80;;;2.88;;
55186;SDS011;55457;52.002;5.464;2023-06-22T01:31:07;4.43;;;2.60;;
55186;SDS011;55457;52.002;5.464;2023-06-22T01:33:34;2.90;;;2.10;;
55186;SDS011;55457;52.002;5.464;2023-06-22T01:36:02;4.07;;;2.30;;
55186;SDS011;55457;52.002;5.464;2023-06-22T01:38:28;3.92;;;2.72;;
55186;SDS011;55457;52.002;5.464;2023-06-22T01:40:55;4.47;;;2.35;;
55186;SDS011;55457;52.002;5.464;2023-06-22T01:43:22;4.82;;;2.60;;
55186;SDS011;55457;52.002;5.464;2023-06-22T01:45:50;3.95;;;2.33;;
55186;SDS011;55457;52.002;5.464;2023-06-22T01:48:17;4.85;;;2.58;;
55186;SDS011;55457;52.002;5.464;2023-06-22T01:50:43;5.75;;;3.05;;
55186;SDS011;55457;52.002;5.464;2023-06-22T01:53:08;6.63;;;2.42;;
55186;SDS011;55457;52.002;5.464;2023-06-22T01:55:34;4.97;;;2.40;;
55186;SDS011;55457;52.002;5.464;2023-06-22T01:57:59;4.93;;;2.83;;
55186;SDS011;55457;52.002;5.464;2023-06-22T02:00:25;5.07;;;2.97;;
55186;SDS011;55457;52.002;5.464;2023-06-22T02:02:58;5.13;;;2.90;;
55186;SDS011;55457;52.002;5.464;2023-06-22T02:05:28;6.87;;;2.77;;
55186;SDS011;55457;52.002;5.464;2023-06-22T02:08:05;4.88;;;2.83;;
55186;SDS011;55457;52.002;5.464;2023-06-22T02:10:34;3.67;;;2.20;;
55186;SDS011;55457;52.002;5.464;2023-06-22T02:13:03;4.90;;;2.35;;
55186;SDS011;55457;52.002;5.464;2023-06-22T02:15:31;4.50;;;2.70;;
55186;SDS011;55457;52.002;5.464;2023-06-22T02:17:56;8.85;;;2.33;;
55186;SDS011;55457;52.002;5.464;2023-06-22T02:20:23;4.53;;;2.35;;
55186;SDS011;55457;52.002;5.464;2023-06-22T02:22:49;3.65;;;2.78;;
55186;SDS011;55457;52.002;5.464;2023-06-22T02:25:14;5.55;;;2.42;;
55186;SDS011;55457;52.002;5.464;2023-06-22T02:27:40;5.97;;;2.65;;
55186;SDS011;55457;52.002;5.464;2023-06-22T02:30:06;6.93;;;2.85;;
55186;SDS011;55457;52.002;5.464;2023-06-22T02:32:33;4.70;;;2.65;;
55186;SDS011;55457;52.002;5.464;2023-06-22T02:34:59;5.28;;;2.08;;
55186;SDS011;55457;52.002;5.464;2023-06-22T02:37:24;4.15;;;2.17;;
55186;SDS011;55457;52.002;5.464;2023-06-22T02:39:50;3.25;;;2.17;;
55186;SDS011;55457;52.002;5.464;2023-06-22T02:42:15;3.75;;;2.55;;
55186;SDS011;55457;52.002;5.464;2023-06-22T02:44:45;3.88;;;2.65;;
55186;SDS011;55457;52.002;5.464;2023-06-22T02:47:11;5.78;;;2.88;;
55186;SDS011;55457;52.002;5.464;2023-06-22T02:49:36;3.47;;;2.20;;
55186;SDS011;55457;52.002;5.464;2023-06-22T02:52:01;4.20;;;2.63;;
55186;SDS011;55457;52.002;5.464;2023-06-22T02:54:27;3.67;;;2.35;;
55186;SDS011;55457;52.002;5.464;2023-06-22T02:56:52;4.30;;;2.45;;
55186;SDS011;55457;52.002;5.464;2023-06-22T02:59:18;2.78;;;2.38;;
55186;SDS011;55457;52.002;5.464;2023-06-22T03:01:48;5.57;;;2.20;;
55186;SDS011;55457;52.002;5.464;2023-06-22T03:04:15;3.58;;;2.40;;
55186;SDS011;55457;52.002;5.464;2023-06-22T03:06:40;3.50;;;2.50;;
55186;SDS011;55457;52.002;5.464;2023-06-22T03:09:06;3.35;;;2.40;;
55186;SDS011;55457;52.002;5.464;2023-06-22T03:11:32;3.33;;;2.50;;
55186;SDS011;55457;52.002;5.464;2023-06-22T03:13:58;4.20;;;2.88;;
55186;SDS011;55457;52.002;5.464;2023-06-22T03:16:24;4.78;;;2.72;;
55186;SDS011;55457;52.002;5.464;2023-06-22T03:18:50;4.43;;;2.75;;
55186;SDS011;55457;52.002;5.464;2023-06-22T03:21:15;6.50;;;2.70;;
55186;SDS011;55457;52.002;5.464;2023-06-22T03:23:42;4.53;;;2.70;;
55186;SDS011;55457;52.002;5.464;2023-06-22T03:26:08;3.08;;;2.42;;
55186;SDS011;55457;52.002;5.464;2023-06-22T03:28:35;3.78;;;2.58;;
55186;SDS011;55457;52.002;5.464;2023-06-22T03:31:00;5.72;;;3.35;;
55186;SDS011;55457;52.002;5.464;2023-06-22T03:33:25;4.13;;;2.28;;
55186;SDS011;55457;52.002;5.464;2023-06-22T03:35:51;4.78;;;2.60;;
55186;SDS011;55457;52.002;5.464;2023-06-22T03:38:17;3.33;;;2.15;;
55186;SDS011;55457;52.002;5.464;2023-06-22T03:40:42;3.40;;;2.33;;
55186;SDS011;55457;52.002;5.464;2023-06-22T03:43:08;3.85;;;2.45;;
55186;SDS011;55457;52.002;5.464;2023-06-22T03:45:33;2.63;;;1.98;;
55186;SDS011;55457;52.002;5.464;2023-06-22T03:47:59;3.42;;;2.30;;
55186;SDS011;55457;52.002;5.464;2023-06-22T03:50:25;5.25;;;2.45;;
55186;SDS011;55457;52.002;5.464;2023-06-22T03:52:50;2.80;;;2.22;;
55186;SDS011;55457;52.002;5.464;2023-06-22T03:55:17;3.90;;;2.67;;
55186;SDS011;55457;52.002;5.464;2023-06-22T03:57:44;3.33;;;2.30;;
55186;SDS011;55457;52.002;5.464;2023-06-22T04:00:10;4.50;;;2.22;;
55186;SDS011;55457;52.002;5.464;2023-06-22T04:02:36;6.38;;;2.65;;
55186;SDS011;55457;52.002;5.464;2023-06-22T04:05:01;2.33;;;1.95;;
55186;SDS011;55457;52.002;5.464;2023-06-22T04:07:26;4.30;;;2.95;;
55186;SDS011;55457;52.002;5.464;2023-06-22T04:09:52;4.38;;;2.33;;
55186;SDS011;55457;52.002;5.464;2023-06-22T04:12:17;3.78;;;2.63;;
55186;SDS011;55457;52.002;5.464;2023-06-22T04:14:42;4.60;;;2.15;;
55186;SDS011;55457;52.002;5.464;2023-06-22T04:17:08;6.13;;;2.20;;
55186;SDS011;55457;52.002;5.464;2023-06-22T04:19:33;7.65;;;2.65;;
55186;SDS011;55457;52.002;5.464;2023-06-22T04:21:59;4.13;;;2.63;;
55186;SDS011;55457;52.002;5.464;2023-06-22T04:24:24;3.55;;;1.95;;
55186;SDS011;55457;52.002;5.464;2023-06-22T04:26:49;4.32;;;3.10;;
55186;SDS011;55457;52.002;5.464;2023-06-22T04:29:18;7.38;;;2.63;;
55186;SDS011;55457;52.002;5.464;2023-06-22T04:31:43;2.88;;;1.90;;
55186;SDS011;55457;52.002;5.464;2023-06-22T04:34:09;4.25;;;2.30;;
55186;SDS011;55457;52.002;5.464;2023-06-22T04:36:38;3.40;;;2.33;;
55186;SDS011;55457;52.002;5.464;2023-06-22T04:39:06;4.47;;;2.20;;
55186;SDS011;55457;52.002;5.464;2023-06-22T04:41:34;3.50;;;2.25;;
55186;SDS011;55457;52.002;5.464;2023-06-22T04:44:14;3.97;;;2.55;;
55186;SDS011;55457;52.002;5.464;2023-06-22T04:46:50;3.28;;;2.28;;
55186;SDS011;55457;52.002;5.464;2023-06-22T04:49:24;5.47;;;2.50;;
55186;SDS011;55457;52.002;5.464;2023-06-22T04:51:57;3.92;;;2.28;;
55186;SDS011;55457;52.002;5.464;2023-06-22T04:54:23;5.30;;;2.17;;
55186;SDS011;55457;52.002;5.464;2023-06-22T04:56:49;3.17;;;2.70;;
55186;SDS011;55457;52.002;5.464;2023-06-22T04:59:21;3.35;;;2.50;;
55186;SDS011;55457;52.002;5.464;2023-06-22T05:01:47;3.33;;;2.50;;
55186;SDS011;55457;52.002;5.464;2023-06-22T05:04:12;5.18;;;2.45;;
55186;SDS011;55457;52.002;5.464;2023-06-22T05:06:38;2.55;;;2.05;;
55186;SDS011;55457;52.002;5.464;2023-06-22T05:09:04;3.45;;;2.28;;
55186;SDS011;55457;52.002;5.464;2023-06-22T05:11:30;5.10;;;2.75;;
55186;SDS011;55457;52.002;5.464;2023-06-22T05:13:55;5.03;;;2.50;;
55186;SDS011;55457;52.002;5.464;2023-06-22T05:16:21;4.25;;;2.28;;
55186;SDS011;55457;52.002;5.464;2023-06-22T05:18:54;4.93;;;2.55;;
55186;SDS011;55457;52.002;5.464;2023-06-22T05:21:24;2.80;;;2.10;;
55186;SDS011;55457;52.002;5.464;2023-06-22T05:23:51;3.72;;;2.42;;
55186;SDS011;55457;52.002;5.464;2023-06-22T05:26:17;3.60;;;2.55;;
55186;SDS011;55457;52.002;5.464;2023-06-22T05:28:44;5.80;;;2.65;;
55186;SDS011;55457;52.002;5.464;2023-06-22T05:31:11;3.20;;;2.47;;
55186;SDS011;55457;52.002;5.464;2023-06-22T05:33:40;3.50;;;2.25;;
55186;SDS011;55457;52.002;5.464;2023-06-22T05:36:06;3.00;;;2.60;;
55186;SDS011;55457;52.002;5.464;2023-06-22T05:38:32;4.50;;;2.60;;
55186;SDS011;55457;52.002;5.464;2023-06-22T05:40:57;5.53;;;2.30;;
55186;SDS011;55457;52.002;5.464;2023-06-22T05:43:23;3.63;;;2.53;;
55186;SDS011;55457;52.002;5.464;2023-06-22T05:45:48;4.00;;;2.45;;
55186;SDS011;55457;52.002;5.464;2023-06-22T05:48:13;14.73;;;2.95;;
55186;SDS011;55457;52.002;5.464;2023-06-22T05:50:39;4.72;;;2.83;;
55186;SDS011;55457;52.002;5.464;2023-06-22T05:53:04;5.60;;;3.20;;
55186;SDS011;55457;52.002;5.464;2023-06-22T05:55:31;10.63;;;3.65;;
55186;SDS011;55457;52.002;5.464;2023-06-22T05:57:57;7.15;;;3.20;;
55186;SDS011;55457;52.002;5.464;2023-06-22T06:00:23;10.20;;;3.08;;
55186;SDS011;55457;52.002;5.464;2023-06-22T06:02:49;5.05;;;3.47;;
55186;SDS011;55457;52.002;5.464;2023-06-22T06:05:14;5.47;;;3.20;;
55186;SDS011;55457;52.002;5.464;2023-06-22T06:07:41;5.20;;;2.97;;
55186;SDS011;55457;52.002;5.464;2023-06-22T06:10:07;4.70;;;3.30;;
55186;SDS011;55457;52.002;5.464;2023-06-22T06:12:33;8.20;;;3.47;;
55186;SDS011;55457;52.002;5.464;2023-06-22T06:14:58;6.28;;;3.13;;
55186;SDS011;55457;52.002;5.464;2023-06-22T06:17:23;6.55;;;3.05;;
55186;SDS011;55457;52.002;5.464;2023-06-22T06:19:49;3.70;;;2.55;;
55186;SDS011;55457;52.002;5.464;2023-06-22T06:22:14;7.20;;;3.55;;
55186;SDS011;55457;52.002;5.464;2023-06-22T06:24:39;7.75;;;3.50;;
55186;SDS011;55457;52.002;5.464;2023-06-22T06:27:05;3.63;;;2.72;;
55186;SDS011;55457;52.002;5.464;2023-06-22T06:29:31;7.35;;;3.08;;
55186;SDS011;55457;52.002;5.464;2023-06-22T06:31:57;7.22;;;3.42;;
55186;SDS011;55457;52.002;5.464;2023-06-22T06:34:22;4.47;;;2.60;;
55186;SDS011;55457;52.002;5.464;2023-06-22T06:36:47;4.18;;;3.42;;
55186;SDS011;55457;52.002;5.464;2023-06-22T06:39:13;6.40;;;3.92;;
55186;SDS011;55457;52.002;5.464;2023-06-22T06:41:38;6.47;;;3.45;;
55186;SDS011;55457;52.002;5.464;2023-06-22T06:44:04;4.40;;;2.67;;
55186;SDS011;55457;52.002;5.464;2023-06-22T06:46:29;4.93;;;3.42;;
55186;SDS011;55457;52.002;5.464;2023-06-22T06:48:55;6.20;;;3.67;;
55186;SDS011;55457;52.002;5.464;2023-06-22T06:51:20;4.15;;;2.88;;
55186;SDS011;55457;52.002;5.464;2023-06-22T06:53:45;9.02;;;3.40;;
55186;SDS011;55457;52.002;5.464;2023-06-22T06:56:11;7.05;;;3.42;;
55186;SDS011;55457;52.002;5.464;2023-06-22T06:58:37;4.85;;;3.67;;
55186;SDS011;55457;52.002;5.464;2023-06-22T07:01:04;5.93;;;3.65;;
55186;SDS011;55457;52.002;5.464;2023-06-22T07:03:29;3.92;;;3.20;;
55186;SDS011;55457;52.002;5.464;2023-06-22T07:05:55;5.15;;;3.50;;
55186;SDS011;55457;52.002;5.464;2023-06-22T07:08:20;4.63;;;3.08;;
55186;SDS011;55457;52.002;5.464;2023-06-22T07:10:46;4.47;;;3.60;;
55186;SDS011;55457;52.002;5.464;2023-06-22T07:13:11;4.30;;;3.08;;
55186;SDS011;55457;52.002;5.464;2023-06-22T07:15:37;5.30;;;2.92;;
55186;SDS011;55457;52.002;5.464;2023-06-22T07:18:02;4.97;;;3.30;;
55186;SDS011;55457;52.002;5.464;2023-06-22T07:20:28;5.35;;;3.10;;
55186;SDS011;55457;52.002;5.464;2023-06-22T07:22:53;4.25;;;3.03;;
55186;SDS011;55457;52.002;5.464;2023-06-22T07:25:19;6.07;;;3.40;;
55186;SDS011;55457;52.002;5.464;2023-06-22T07:27:45;5.65;;;3.60;;
55186;SDS011;55457;52.002;5.464;2023-06-22T07:30:12;8.75;;;4.05;;
55186;SDS011;55457;52.002;5.464;2023-06-22T07:32:39;5.80;;;3.75;;
55186;SDS011;55457;52.002;5.464;2023-06-22T07:35:04;7.13;;;4.03;;
55186;SDS011;55457;52.002;5.464;2023-06-22T07:37:31;5.85;;;3.80;;
55186;SDS011;55457;52.002;5.464;2023-06-22T07:39:58;7.30;;;4.93;;
55186;SDS011;55457;52.002;5.464;2023-06-22T07:42:27;5.68;;;4.35;;
55186;SDS011;55457;52.002;5.464;2023-06-22T07:44:53;5.68;;;3.83;;
55186;SDS011;55457;52.002;5.464;2023-06-22T07:47:19;4.22;;;3.03;;
55186;SDS011;55457;52.002;5.464;2023-06-22T07:49:45;4.75;;;3.00;;
55186;SDS011;55457;52.002;5.464;2023-06-22T07:52:11;6.18;;;3.45;;
55186;SDS011;55457;52.002;5.464;2023-06-22T07:54:36;5.55;;;2.80;;
55186;SDS011;55457;52.002;5.464;2023-06-22T07:57:02;6.25;;;3.28;;
55186;SDS011;55457;52.002;5.464;2023-06-22T07:59:27;4.82;;;2.55;;
55186;SDS011;55457;52.002;5.464;2023-06-22T08:01:53;3.53;;;2.65;;
55186;SDS011;55457;52.002;5.464;2023-06-22T08:04:19;5.47;;;3.70;;
55186;SDS011;55457;52.002;5.464;2023-06-22T08:06:45;5.07;;;4.05;;
55186;SDS011;55457;52.002;5.464;2023-06-22T08:09:10;5.03;;;3.13;;
55186;SDS011;55457;52.002;5.464;2023-06-22T08:11:35;4.82;;;3.25;;
55186;SDS011;55457;52.002;5.464;2023-06-22T08:14:01;4.15;;;2.70;;
55186;SDS011;55457;52.002;5.464;2023-06-22T08:16:26;3.45;;;2.63;;
55186;SDS011;55457;52.002;5.464;2023-06-22T08:18:51;3.78;;;2.50;;
55186;SDS011;55457;52.002;5.464;2023-06-22T08:21:17;4.25;;;2.58;;
55186;SDS011;55457;52.002;5.464;2023-06-22T08:23:42;3.15;;;2.60;;
55186;SDS011;55457;52.002;5.464;2023-06-22T08:26:07;5.63;;;3.08;;
55186;SDS011;55457;52.002;5.464;2023-06-22T08:28:33;5.85;;;2.80;;
55186;SDS011;55457;52.002;5.464;2023-06-22T08:30:59;3.28;;;2.60;;
55186;SDS011;55457;52.002;5.464;2023-06-22T08:33:25;3.72;;;2.72;;
55186;SDS011;55457;52.002;5.464;2023-06-22T08:35:53;7.20;;;2.63;;
55186;SDS011;55457;52.002;5.464;2023-06-22T08:38:19;6.25;;;3.08;;
55186;SDS011;55457;52.002;5.464;2023-06-22T08:40:45;3.03;;;2.60;;
55186;SDS011;55457;52.002;5.464;2023-06-22T08:43:10;3.38;;;2.50;;
55186;SDS011;55457;52.002;5.464;2023-06-22T08:45:35;3.70;;;2.42;;
55186;SDS011;55457;52.002;5.464;2023-06-22T08:48:01;4.43;;;2.70;;
55186;SDS011;55457;52.002;5.464;2023-06-22T08:50:26;2.80;;;2.00;;
55186;SDS011;55457;52.002;5.464;2023-06-22T08:52:51;5.55;;;3.15;;
55186;SDS011;55457;52.002;5.464;2023-06-22T08:55:17;4.95;;;2.97;;
55186;SDS011;55457;52.002;5.464;2023-06-22T08:57:42;5.53;;;2.80;;
55186;SDS011;55457;52.002;5.464;2023-06-22T09:00:09;5.00;;;2.80;;
55186;SDS011;55457;52.002;5.464;2023-06-22T09:02:45;6.97;;;2.90;;
55186;SDS011;55457;52.002;5.464;2023-06-22T09:05:11;5.68;;;2.50;;
55186;SDS011;55457;52.002;5.464;2023-06-22T09:07:37;3.45;;;2.30;;
55186;SDS011;55457;52.002;5.464;2023-06-22T09:10:02;3.33;;;2.60;;
55186;SDS011;55457;52.002;5.464;2023-06-22T09:12:31;3.00;;;2.33;;
55186;SDS011;55457;52.002;5.464;2023-06-22T09:14:58;7.82;;;2.60;;
55186;SDS011;55457;52.002;5.464;2023-06-22T09:17:25;5.85;;;2.97;;
55186;SDS011;55457;52.002;5.464;2023-06-22T09:19:51;4.53;;;2.60;;
55186;SDS011;55457;52.002;5.464;2023-06-22T09:22:16;6.05;;;2.72;;
55186;SDS011;55457;52.002;5.464;2023-06-22T09:24:42;4.68;;;2.58;;
55186;SDS011;55457;52.002;5.464;2023-06-22T09:27:07;6.85;;;3.22;;
55186;SDS011;55457;52.002;5.464;2023-06-22T09:29:32;7.85;;;2.97;;
55186;SDS011;55457;52.002;5.464;2023-06-22T09:32:00;5.93;;;2.58;;
55186;SDS011;55457;52.002;5.464;2023-06-22T09:34:26;9.55;;;2.75;;
55186;SDS011;55457;52.002;5.464;2023-06-22T09:36:52;5.57;;;3.92;;
55186;SDS011;55457;52.002;5.464;2023-06-22T09:39:20;10.63;;;3.60;;
55186;SDS011;55457;52.002;5.464;2023-06-22T09:41:45;8.25;;;3.10;;
55186;SDS011;55457;52.002;5.464;2023-06-22T09:44:11;7.63;;;3.45;;
55186;SDS011;55457;52.002;5.464;2023-06-22T09:46:36;8.68;;;4.55;;
55186;SDS011;55457;52.002;5.464;2023-06-22T09:49:01;10.52;;;4.22;;
55186;SDS011;55457;52.002;5.464;2023-06-22T09:51:27;8.77;;;4.43;;
55186;SDS011;55457;52.002;5.464;2023-06-22T09:53:52;8.40;;;3.95;;
55186;SDS011;55457;52.002;5.464;2023-06-22T09:56:20;9.15;;;4.55;;
55186;SDS011;55457;52.002;5.464;2023-06-22T09:58:46;11.05;;;4.68;;
55186;SDS011;55457;52.002;5.464;2023-06-22T10:01:12;6.57;;;4.40;;
55186;SDS011;55457;52.002;5.464;2023-06-22T10:03:41;10.05;;;4.75;;
55186;SDS011;55457;52.002;5.464;2023-06-22T10:06:07;11.60;;;4.40;;
55186;SDS011;55457;52.002;5.464;2023-06-22T10:08:33;9.15;;;4.32;;
55186;SDS011;55457;52.002;5.464;2023-06-22T10:10:59;8.95;;;4.57;;
55186;SDS011;55457;52.002;5.464;2023-06-22T10:13:25;10.68;;;4.63;;
55186;SDS011;55457;52.002;5.464;2023-06-22T10:15:50;6.38;;;4.10;;
55186;SDS011;55457;52.002;5.464;2023-06-22T10:18:17;8.35;;;4.13;;
55186;SDS011;55457;52.002;5.464;2023-06-22T10:20:43;11.88;;;4.70;;
55186;SDS011;55457;52.002;5.464;2023-06-22T10:23:09;8.13;;;4.53;;
55186;SDS011;55457;52.002;5.464;2023-06-22T10:25:34;11.43;;;4.45;;
55186;SDS011;55457;52.002;5.464;2023-06-22T10:28:00;7.65;;;3.88;;
55186;SDS011;55457;52.002;5.464;2023-06-22T10:30:25;11.85;;;4.43;;
55186;SDS011;55457;52.002;5.464;2023-06-22T10:32:51;8.80;;;3.97;;
55186;SDS011;55457;52.002;5.464;2023-06-22T10:35:16;7.88;;;4.13;;
55186;SDS011;55457;52.002;5.464;2023-06-22T10:37:42;8.07;;;3.83;;
55186;SDS011;55457;52.002;5.464;2023-06-22T10:40:08;7.05;;;3.53;;
55186;SDS011;55457;52.002;5.464;2023-06-22T10:42:35;8.63;;;3.75;;
55186;SDS011;55457;52.002;5.464;2023-06-22T10:45:00;7.82;;;4.18;;
55186;SDS011;55457;52.002;5.464;2023-06-22T10:47:26;7.05;;;3.83;;
55186;SDS011;55457;52.002;5.464;2023-06-22T10:49:51;6.80;;;3.67;;
55186;SDS011;55457;52.002;5.464;2023-06-22T10:52:16;7.72;;;4.60;;
55186;SDS011;55457;52.002;5.464;2023-06-22T10:54:42;6.50;;;4.18;;
55186;SDS011;55457;52.002;5.464;2023-06-22T10:57:07;7.35;;;3.95;;
55186;SDS011;55457;52.002;5.464;2023-06-22T10:59:33;6.95;;;3.92;;
55186;SDS011;55457;52.002;5.464;2023-06-22T11:01:58;8.23;;;4.10;;
55186;SDS011;55457;52.002;5.464;2023-06-22T11:04:24;7.05;;;3.92;;
55186;SDS011;55457;52.002;5.464;2023-06-22T11:06:50;7.53;;;3.90;;
55186;SDS011;55457;52.002;5.464;2023-06-22T11:09:16;8.18;;;3.80;;
55186;SDS011;55457;52.002;5.464;2023-06-22T11:14:14;9.02;;;3.95;;
55186;SDS011;55457;52.002;5.464;2023-06-22T11:16:40;7.25;;;4.05;;
55186;SDS011;55457;52.002;5.464;2023-06-22T11:19:05;7.88;;;4.40;;
55186;SDS011;55457;52.002;5.464;2023-06-22T11:21:31;7.68;;;4.68;;
55186;SDS011;55457;52.002;5.464;2023-06-22T11:23:57;10.70;;;4.97;;
55186;SDS011;55457;52.002;5.464;2023-06-22T11:26:24;12.70;;;4.10;;
55186;SDS011;55457;52.002;5.464;2023-06-22T11:28:52;5.72;;;3.20;;
55186;SDS011;55457;52.002;5.464;2023-06-22T11:31:17;9.35;;;4.13;;
55186;SDS011;55457;52.002;5.464;2023-06-22T11:33:43;5.40;;;3.72;;
55186;SDS011;55457;52.002;5.464;2023-06-22T11:36:10;9.85;;;4.10;;
55186;SDS011;55457;52.002;5.464;2023-06-22T11:38:36;7.13;;;3.58;;
55186;SDS011;55457;52.002;5.464;2023-06-22T11:41:04;11.95;;;4.10;;
55186;SDS011;55457;52.002;5.464;2023-06-22T11:43:30;6.97;;;3.97;;
55186;SDS011;55457;52.002;5.464;2023-06-22T11:45:56;7.55;;;3.53;;
55186;SDS011;55457;52.002;5.464;2023-06-22T11:48:22;7.78;;;3.55;;
55186;SDS011;55457;52.002;5.464;2023-06-22T11:50:49;5.07;;;3.53;;
55186;SDS011;55457;52.002;5.464;2023-06-22T11:53:14;7.03;;;3.80;;
55186;SDS011;55457;52.002;5.464;2023-06-22T11:55:41;12.75;;;4.50;;
55186;SDS011;55457;52.002;5.464;2023-06-22T11:58:07;6.05;;;3.90;;
55186;SDS011;55457;52.002;5.464;2023-06-22T12:00:33;6.75;;;3.90;;
55186;SDS011;55457;52.002;5.464;2023-06-22T12:02:58;5.40;;;3.72;;
55186;SDS011;55457;52.002;5.464;2023-06-22T12:05:24;4.72;;;3.38;;
55186;SDS011;55457;52.002;5.464;2023-06-22T12:07:49;6.57;;;3.90;;
55186;SDS011;55457;52.002;5.464;2023-06-22T12:10:15;4.95;;;3.67;;
55186;SDS011;55457;52.002;5.464;2023-06-22T12:12:41;6.10;;;3.53;;
55186;SDS011;55457;52.002;5.464;2023-06-22T12:15:07;4.10;;;3.40;;
55186;SDS011;55457;52.002;5.464;2023-06-22T12:17:34;6.53;;;4.15;;
55186;SDS011;55457;52.002;5.464;2023-06-22T12:19:59;5.05;;;3.63;;
55186;SDS011;55457;52.002;5.464;2023-06-22T12:22:25;5.40;;;3.47;;
55186;SDS011;55457;52.002;5.464;2023-06-22T12:24:50;6.25;;;3.88;;
55186;SDS011;55457;52.002;5.464;2023-06-22T12:27:16;7.05;;;3.92;;
55186;SDS011;55457;52.002;5.464;2023-06-22T12:29:43;4.88;;;3.75;;
55186;SDS011;55457;52.002;5.464;2023-06-22T12:32:10;5.55;;;4.05;;
55186;SDS011;55457;52.002;5.464;2023-06-22T12:34:38;7.18;;;3.78;;
55186;SDS011;55457;52.002;5.464;2023-06-22T12:37:04;5.10;;;4.30;;
55186;SDS011;55457;52.002;5.464;2023-06-22T12:39:30;6.95;;;4.15;;
55186;SDS011;55457;52.002;5.464;2023-06-22T12:41:56;7.00;;;4.50;;
55186;SDS011;55457;52.002;5.464;2023-06-22T12:44:21;6.25;;;4.43;;
55186;SDS011;55457;52.002;5.464;2023-06-22T12:46:47;5.47;;;3.85;;
55186;SDS011;55457;52.002;5.464;2023-06-22T12:49:12;5.97;;;4.03;;
55186;SDS011;55457;52.002;5.464;2023-06-22T12:51:41;7.10;;;5.40;;
55186;SDS011;55457;52.002;5.464;2023-06-22T12:54:08;6.75;;;4.22;;
55186;SDS011;55457;52.002;5.464;2023-06-22T12:56:34;6.13;;;4.22;;
55186;SDS011;55457;52.002;5.464;2023-06-22T12:59:00;6.45;;;4.13;;
55186;SDS011;55457;52.002;5.464;2023-06-22T13:01:29;7.65;;;4.57;;
55186;SDS011;55457;52.002;5.464;2023-06-22T13:03:55;5.43;;;4.40;;
55186;SDS011;55457;52.002;5.464;2023-06-22T13:06:21;9.07;;;4.60;;
55186;SDS011;55457;52.002;5.464;2023-06-22T13:08:46;5.72;;;4.50;;
55186;SDS011;55457;52.002;5.464;2023-06-22T13:11:11;7.53;;;4.57;;
55186;SDS011;55457;52.002;5.464;2023-06-22T13:13:38;5.90;;;4.32;;
55186;SDS011;55457;52.002;5.464;2023-06-22T13:16:03;5.45;;;4.60;;
55186;SDS011;55457;52.002;5.464;2023-06-22T13:18:29;5.32;;;4.57;;
55186;SDS011;55457;52.002;5.464;2023-06-22T13:20:54;7.22;;;5.25;;
55186;SDS011;55457;52.002;5.464;2023-06-22T13:23:20;6.35;;;4.75;;
55186;SDS011;55457;52.002;5.464;2023-06-22T13:25:46;6.70;;;4.25;;
55186;SDS011;55457;52.002;5.464;2023-06-22T13:28:12;5.35;;;4.63;;
55186;SDS011;55457;52.002;5.464;2023-06-22T13:30:39;6.15;;;5.05;;
55186;SDS011;55457;52.002;5.464;2023-06-22T13:33:05;10.82;;;4.70;;
55186;SDS011;55457;52.002;5.464;2023-06-22T13:35:30;5.88;;;4.47;;
55186;SDS011;55457;52.002;5.464;2023-06-22T13:37:56;4.82;;;4.20;;
55186;SDS011;55457;52.002;5.464;2023-06-22T13:40:21;6.45;;;4.22;;
55186;SDS011;55457;52.002;5.464;2023-06-22T13:42:46;7.43;;;4.80;;
55186;SDS011;55457;52.002;5.464;2023-06-22T13:45:12;4.80;;;4.18;;
55186;SDS011;55457;52.002;5.464;2023-06-22T13:47:37;6.80;;;4.45;;
55186;SDS011;55457;52.002;5.464;2023-06-22T13:50:03;5.30;;;4.78;;
55186;SDS011;55457;52.002;5.464;2023-06-22T13:52:28;7.13;;;4.28;;
55186;SDS011;55457;52.002;5.464;2023-06-22T13:54:54;5.88;;;4.65;;
55186;SDS011;55457;52.002;5.464;2023-06-22T13:57:19;5.20;;;4.43;;
55186;SDS011;55457;52.002;5.464;2023-06-22T13:59:45;7.43;;;5.10;;
55186;SDS011;55457;52.002;5.464;2023-06-22T14:02:11;5.47;;;4.85;;
55186;SDS011;55457;52.002;5.464;2023-06-22T14:04:36;5.15;;;4.65;;
55186;SDS011;55457;52.002;5.464;2023-06-22T14:07:01;5.85;;;4.28;;
55186;SDS011;55457;52.002;5.464;2023-06-22T14:09:27;6.45;;;4.60;;
55186;SDS011;55457;52.002;5.464;2023-06-22T14:11:53;5.78;;;4.25;;
55186;SDS011;55457;52.002;5.464;2023-06-22T14:14:19;5.07;;;4.43;;
55186;SDS011;55457;52.002;5.464;2023-06-22T14:16:45;5.85;;;4.40;;
55186;SDS011;55457;52.002;5.464;2023-06-22T14:19:10;6.30;;;4.53;;
55186;SDS011;55457;52.002;5.464;2023-06-22T14:21:36;6.40;;;4.20;;
55186;SDS011;55457;52.002;5.464;2023-06-22T14:24:01;6.32;;;4.95;;
55186;SDS011;55457;52.002;5.464;2023-06-22T14:26:27;5.07;;;4.53;;
55186;SDS011;55457;52.002;5.464;2023-06-22T14:28:52;5.15;;;4.65;;
55186;SDS011;55457;52.002;5.464;2023-06-22T14:31:18;4.75;;;4.20;;
55186;SDS011;55457;52.002;5.464;2023-06-22T14:33:47;5.63;;;4.32;;
55186;SDS011;55457;52.002;5.464;2023-06-22T14:36:14;6.03;;;4.72;;
55186;SDS011;55457;52.002;5.464;2023-06-22T14:38:40;5.57;;;4.72;;
55186;SDS011;55457;52.002;5.464;2023-06-22T14:41:06;6.45;;;4.18;;
55186;SDS011;55457;52.002;5.464;2023-06-22T14:43:31;5.35;;;4.55;;
55186;SDS011;55457;52.002;5.464;2023-06-22T14:45:56;6.47;;;4.78;;
55186;SDS011;55457;52.002;5.464;2023-06-22T14:48:22;4.32;;;3.92;;
55186;SDS011;55457;52.002;5.464;2023-06-22T14:50:47;5.85;;;4.18;;